createdAt,value
2018-06-09T00:01:04.395Z,22.77
2018-06-09T00:03:32.407Z,21.23
2018-06-09T00:06:00.451Z,23.23
2018-06-09T00:08:28.488Z,21.87
2018-06-09T00:10:56.498Z,21.13
2018-06-09T00:13:24.530Z,21.83
2018-06-09T00:15:52.546Z,21.83
2018-06-09T00:18:20.361Z,23.43
2018-06-09T00:20:48.387Z,24.60
2018-06-09T00:23:16.435Z,24.03
2018-06-09T00:25:44.446Z,26.40
2018-06-09T00:28:12.483Z,26.97
2018-06-09T00:30:40.515Z,28.57
2018-06-09T00:33:08.542Z,30.47
2018-06-09T00:35:36.580Z,29.33
2018-06-09T00:38:04.594Z,31.00
2018-06-09T00:40:32.686Z,34.70
2018-06-09T00:43:00.950Z,29.37
2018-06-09T00:45:28.970Z,37.40
2018-06-09T00:47:56.994Z,34.03
2018-06-09T00:50:25.035Z,35.03
2018-06-09T00:52:53.050Z,34.27
2018-06-09T00:55:21.095Z,35.93
2018-06-09T00:57:49.142Z,41.70
2018-06-09T01:00:17.181Z,36.87
2018-06-09T01:02:45.198Z,40.87
2018-06-09T01:05:13.227Z,37.97
2018-06-09T01:07:41.262Z,36.80
2018-06-09T01:10:09.128Z,34.77
2018-06-09T01:12:37.166Z,33.33
2018-06-09T01:15:05.198Z,34.97
2018-06-09T01:17:33.267Z,33.30
2018-06-09T01:20:01.316Z,33.70
2018-06-09T01:22:29.378Z,33.23
2018-06-09T01:24:57.411Z,30.87
2018-06-09T01:27:25.440Z,30.67
2018-06-09T01:29:53.466Z,28.50
2018-06-09T01:32:21.523Z,28.47
2018-06-09T01:34:49.559Z,30.43
2018-06-09T01:37:17.607Z,27.17
2018-06-09T01:39:45.644Z,31.87
2018-06-09T01:42:13.529Z,28.70
2018-06-09T01:44:41.562Z,30.23
2018-06-09T01:47:09.634Z,31.87
2018-06-09T01:49:37.666Z,31.07
2018-06-09T01:52:05.907Z,30.93
2018-06-09T01:54:33.726Z,32.07
2018-06-09T01:57:01.762Z,31.53
2018-06-09T01:59:29.798Z,32.30
2018-06-09T02:01:57.831Z,32.20
2018-06-09T02:04:25.859Z,31.83
2018-06-09T02:06:53.877Z,31.37
2018-06-09T02:09:21.930Z,30.43
2018-06-09T02:11:49.962Z,29.40
2018-06-09T02:14:18.019Z,29.40
2018-06-09T02:16:46.071Z,29.07
2018-06-09T02:19:13.882Z,32.20
2018-06-09T02:21:41.974Z,30.77
2018-06-09T02:24:10.019Z,33.03
2018-06-09T02:26:38.038Z,31.93
2018-06-09T02:29:06.088Z,32.83
2018-06-09T02:31:34.114Z,32.37
2018-06-09T02:34:02.342Z,34.30
2018-06-09T02:36:30.364Z,35.97
2018-06-09T02:38:58.396Z,36.43
2018-06-09T02:41:26.435Z,40.77
2018-06-09T02:43:54.491Z,37.83
2018-06-09T02:46:22.329Z,36.50
2018-06-09T02:48:50.141Z,35.83
2018-06-09T02:51:18.162Z,35.87
2018-06-09T02:53:46.198Z,34.23
2018-06-09T02:56:14.015Z,34.30
2018-06-09T02:58:42.043Z,32.43
2018-06-09T03:01:10.073Z,38.50
2018-06-09T03:03:38.095Z,37.90
2018-06-09T03:06:06.120Z,34.73
2018-06-09T03:08:34.147Z,35.83
2018-06-09T03:11:02.171Z,36.60
2018-06-09T03:13:30.206Z,38.83
2018-06-09T03:15:58.231Z,40.37
2018-06-09T03:18:26.264Z,41.93
2018-06-09T03:20:54.294Z,39.10
2018-06-09T03:23:22.106Z,40.67
2018-06-09T03:25:50.171Z,39.73
2018-06-09T03:28:18.198Z,45.20
2018-06-09T03:30:46.235Z,39.00
2018-06-09T03:33:14.038Z,40.40
2018-06-09T03:35:42.083Z,37.73
2018-06-09T03:38:10.098Z,40.03
2018-06-09T03:40:38.135Z,40.20
2018-06-09T03:43:06.231Z,40.03
2018-06-09T03:45:34.199Z,43.17
2018-06-09T03:48:02.231Z,39.83
2018-06-09T03:50:30.279Z,37.80
2018-06-09T03:52:58.291Z,38.13
2018-06-09T03:55:26.338Z,37.17
2018-06-09T03:57:54.362Z,38.57
2018-06-09T04:00:22.392Z,37.57
2018-06-09T04:02:50.422Z,35.87
2018-06-09T04:05:18.462Z,35.97
2018-06-09T04:07:46.486Z,35.70
2018-06-09T04:10:14.522Z,37.10
2018-06-09T04:12:42.550Z,32.93
2018-06-09T04:15:10.586Z,37.33
2018-06-09T04:17:38.619Z,35.17
2018-06-09T04:20:06.642Z,35.57
2018-06-09T04:22:34.670Z,37.43
2018-06-09T04:25:02.696Z,38.07
2018-06-09T04:27:30.721Z,36.57
2018-06-09T04:29:58.746Z,33.50
2018-06-09T04:32:26.786Z,34.17
2018-06-09T04:34:54.812Z,37.53
2018-06-09T04:37:22.848Z,33.37
2018-06-09T04:39:50.899Z,34.50
2018-06-09T04:42:19.698Z,33.10
2018-06-09T04:44:47.718Z,35.83
2018-06-09T04:47:15.758Z,38.43
2018-06-09T04:49:43.771Z,34.67
2018-06-09T04:52:11.839Z,33.53
2018-06-09T04:54:39.828Z,32.17
2018-06-09T04:57:07.857Z,31.73
2018-06-09T04:59:35.874Z,32.83
2018-06-09T05:02:04.422Z,33.43
2018-06-09T05:04:32.439Z,32.00
2018-06-09T05:07:00.462Z,33.07
2018-06-09T05:09:28.495Z,32.00
2018-06-09T05:11:56.518Z,29.07
2018-06-09T05:14:24.555Z,30.67
2018-06-09T05:16:52.570Z,29.57
2018-06-09T05:19:20.590Z,28.90
2018-06-09T05:21:48.626Z,29.23
2018-06-09T05:24:16.651Z,29.13
2018-06-09T05:26:44.678Z,31.97
2018-06-09T05:29:12.714Z,30.13
2018-06-09T05:31:40.742Z,29.03
2018-06-09T05:34:08.772Z,28.40
2018-06-09T05:36:36.790Z,27.77
2018-06-09T05:39:06.562Z,29.23
2018-06-09T05:41:34.624Z,28.33
2018-06-09T05:44:02.462Z,26.90
2018-06-09T05:46:30.511Z,28.77
2018-06-09T05:48:58.547Z,27.47
2018-06-09T05:51:26.567Z,26.87
2018-06-09T05:53:54.602Z,26.43
2018-06-09T05:56:22.632Z,24.40
2018-06-09T05:58:50.667Z,26.40
2018-06-09T06:01:18.686Z,26.07
2018-06-09T06:03:46.727Z,25.23
2018-06-09T06:06:14.768Z,25.57
2018-06-09T06:08:42.786Z,25.73
2018-06-09T06:11:10.811Z,23.60
2018-06-09T06:13:38.838Z,24.63
2018-06-09T06:16:06.863Z,23.50
2018-06-09T06:18:34.901Z,23.53
2018-06-09T06:21:02.918Z,24.03
2018-06-09T06:23:30.948Z,24.47
2018-06-09T06:28:26.326Z,22.63
2018-06-09T06:30:54.351Z,21.87
2018-06-09T06:33:22.394Z,21.63
2018-06-09T06:38:17.771Z,20.27
2018-06-09T06:43:12.938Z,20.30
2018-06-09T06:45:40.970Z,21.00
2018-06-09T06:48:08.994Z,22.67
2018-06-09T06:50:37.051Z,18.40
2018-06-09T06:53:05.076Z,17.00
2018-06-09T06:55:33.106Z,18.17
2018-06-09T06:58:01.307Z,17.93
2018-06-09T07:00:29.343Z,18.10
2018-06-09T07:02:57.363Z,18.33
2018-06-09T07:05:25.409Z,19.30
2018-06-09T07:07:53.432Z,18.50
2018-06-09T07:10:21.469Z,18.30
2018-06-09T07:12:49.490Z,18.37
2018-06-09T07:15:17.514Z,17.83
2018-06-09T07:17:45.530Z,18.10
2018-06-09T07:20:13.358Z,17.37
2018-06-09T07:22:41.378Z,17.97
2018-06-09T07:25:09.403Z,16.67
2018-06-09T07:27:37.442Z,16.13
2018-06-09T07:30:05.593Z,15.73
2018-06-09T07:32:33.615Z,17.07
2018-06-09T07:35:01.681Z,16.57
2018-06-09T07:37:29.782Z,16.90
2018-06-09T07:39:57.825Z,14.73
2018-06-09T07:42:25.848Z,15.60
2018-06-09T07:44:53.883Z,16.40
2018-06-09T07:47:22.314Z,16.63
2018-06-09T07:49:50.322Z,15.80
2018-06-09T07:52:18.387Z,14.90
2018-06-09T07:54:46.402Z,15.67
2018-06-09T07:57:14.433Z,14.97
2018-06-09T07:59:42.250Z,15.60
2018-06-09T08:02:10.279Z,15.50
2018-06-09T08:04:38.322Z,24.15
2018-06-09T08:07:06.489Z,14.90
2018-06-09T08:09:34.506Z,14.50
2018-06-09T08:12:02.332Z,14.67
2018-06-09T08:14:30.369Z,15.30
2018-06-09T08:16:58.397Z,14.75
2018-06-09T08:19:26.565Z,14.60
2018-06-09T08:21:54.593Z,14.90
2018-06-09T08:26:49.990Z,13.40
2018-06-09T08:29:17.817Z,13.53
2018-06-09T08:31:45.858Z,13.50
2018-06-09T08:34:13.882Z,14.40
2018-06-09T08:36:41.910Z,14.73
2018-06-09T08:39:09.943Z,14.30
2018-06-09T08:41:38.219Z,15.73
2018-06-09T08:44:06.218Z,14.23
2018-06-09T08:46:34.272Z,13.98
2018-06-09T08:49:02.302Z,13.33
2018-06-09T08:51:30.346Z,13.23
2018-06-09T08:53:58.377Z,11.88
2018-06-09T08:56:26.417Z,13.70
2018-06-09T08:58:54.552Z,13.53
2018-06-09T09:01:22.583Z,12.68
2018-06-09T09:03:50.608Z,13.00
2018-06-09T09:06:18.674Z,13.63
2018-06-09T09:08:46.726Z,12.00
2018-06-09T09:11:14.603Z,12.60
2018-06-09T09:13:42.762Z,11.77
2018-06-09T09:16:10.798Z,12.20
2018-06-09T09:18:38.667Z,11.53
2018-06-09T09:21:06.816Z,10.97
2018-06-09T09:23:34.851Z,12.58
2018-06-09T09:26:02.923Z,10.88
2018-06-09T09:28:30.969Z,11.28
2018-06-09T09:30:59.002Z,11.57
2018-06-09T09:33:27.115Z,13.88
2018-06-09T09:35:55.182Z,12.60
2018-06-09T09:38:23.243Z,13.37
2018-06-09T09:40:51.378Z,13.77
2018-06-09T09:43:19.575Z,12.55
2018-06-09T09:45:47.666Z,10.88
2018-06-09T09:48:15.486Z,10.60
2018-06-09T09:50:43.530Z,12.27
2018-06-09T09:53:11.650Z,12.15
2018-06-09T09:55:39.687Z,11.83
2018-06-09T09:58:07.752Z,12.28
2018-06-09T10:00:39.699Z,12.35
2018-06-09T10:03:07.561Z,13.08
2018-06-09T10:05:36.651Z,12.18
2018-06-09T10:08:04.474Z,11.28
2018-06-09T10:10:32.520Z,11.00
2018-06-09T10:13:00.550Z,12.53
2018-06-09T10:15:28.607Z,12.50
2018-06-09T10:17:56.699Z,11.60
2018-06-09T10:20:24.539Z,11.45
2018-06-09T10:22:52.603Z,12.68
2018-06-09T10:25:20.666Z,11.88
2018-06-09T10:27:48.544Z,12.30
2018-06-09T10:30:16.574Z,10.70
2018-06-09T10:32:44.494Z,11.22
2018-06-09T10:35:12.494Z,12.13
2018-06-09T10:37:40.603Z,12.43
2018-06-09T10:40:08.662Z,12.53
2018-06-09T10:42:36.767Z,10.75
2018-06-09T10:45:04.807Z,11.83
2018-06-09T10:47:32.902Z,10.13
2018-06-09T10:50:00.930Z,11.08
2018-06-09T10:52:28.750Z,10.75
2018-06-09T10:54:57.754Z,11.70
2018-06-09T10:57:25.629Z,11.83
2018-06-09T10:59:53.771Z,10.80
2018-06-09T11:02:21.806Z,9.95
2018-06-09T11:07:17.187Z,10.75
2018-06-09T11:09:45.257Z,10.48
2018-06-09T11:12:13.500Z,11.45
2018-06-09T11:14:41.521Z,11.20
2018-06-09T11:17:09.552Z,11.60
2018-06-09T11:19:37.571Z,11.53
2018-06-09T11:22:05.603Z,11.35
2018-06-09T11:24:33.646Z,10.90
2018-06-09T11:27:01.671Z,10.78
2018-06-09T11:29:29.747Z,10.78
2018-06-09T11:31:57.782Z,10.93
2018-06-09T11:34:25.803Z,10.93
2018-06-09T11:36:53.822Z,9.95
2018-06-09T11:39:21.834Z,9.40
2018-06-09T11:41:49.643Z,9.90
2018-06-09T11:44:17.673Z,9.98
2018-06-09T11:46:45.731Z,10.95
2018-06-09T11:49:13.743Z,10.53
2018-06-09T11:51:41.557Z,10.72
2018-06-09T11:54:09.575Z,10.15
2018-06-09T11:56:37.622Z,10.28
2018-06-09T11:59:05.658Z,10.32
2018-06-09T12:01:33.683Z,9.25
2018-06-09T12:04:01.698Z,9.83
2018-06-09T12:06:29.734Z,10.03
2018-06-09T12:08:57.751Z,9.05
2018-06-09T12:11:25.772Z,9.50
2018-06-09T12:13:53.791Z,9.98
2018-06-09T12:16:21.819Z,10.00
2018-06-09T12:18:49.842Z,9.75
2018-06-09T12:21:17.858Z,9.73
2018-06-09T12:23:45.882Z,8.98
2018-06-09T12:26:13.908Z,9.90
2018-06-09T12:28:41.935Z,9.00
2018-06-09T12:33:37.322Z,9.23
2018-06-09T12:36:05.347Z,9.23
2018-06-09T12:48:23.020Z,9.00
2018-06-09T12:50:51.061Z,9.60
2018-06-09T12:55:46.455Z,9.20
2018-06-09T12:58:14.499Z,9.25
2018-06-09T13:00:42.552Z,8.78
2018-06-09T13:03:10.570Z,8.80
2018-06-09T13:05:38.587Z,8.73
2018-06-09T13:08:06.687Z,9.03
2018-06-09T13:10:34.715Z,8.75
2018-06-09T13:13:02.735Z,8.98
2018-06-09T13:15:30.754Z,11.80
2018-06-09T13:17:58.767Z,8.75
2018-06-09T13:20:26.786Z,9.00
2018-06-09T13:22:54.797Z,9.25
2018-06-09T13:25:22.819Z,8.45
2018-06-09T13:27:50.858Z,9.30
2018-06-09T13:30:18.903Z,9.83
2018-06-09T13:35:14.075Z,8.98
2018-06-09T13:37:42.115Z,9.18
2018-06-09T13:40:10.138Z,11.45
2018-06-09T13:42:38.164Z,8.80
2018-06-09T13:45:06.178Z,9.20
2018-06-09T13:47:34.211Z,9.30
2018-06-09T13:50:02.388Z,9.90
2018-06-09T13:52:30.430Z,10.25
2018-06-09T13:54:58.462Z,10.70
2018-06-09T13:57:26.278Z,10.28
2018-06-09T13:59:54.306Z,10.43
2018-06-09T14:02:22.335Z,10.80
2018-06-09T14:04:50.162Z,10.93
2018-06-09T14:07:17.983Z,11.35
2018-06-09T14:09:46.019Z,12.13
2018-06-09T14:12:14.050Z,12.15
2018-06-09T14:14:41.877Z,11.97
2018-06-09T14:17:09.905Z,12.93
2018-06-09T14:19:37.930Z,14.05
2018-06-09T14:22:05.959Z,12.95
2018-06-09T14:24:33.778Z,14.70
2018-06-09T14:27:01.821Z,13.43
2018-06-09T14:29:29.861Z,14.25
2018-06-09T14:31:57.874Z,13.68
2018-06-09T14:34:25.894Z,14.40
2018-06-09T14:36:53.923Z,15.15
2018-06-09T14:39:21.986Z,14.90
2018-06-09T14:41:50.062Z,14.90
2018-06-09T14:44:18.098Z,14.25
2018-06-09T14:46:46.127Z,14.38
2018-06-09T14:49:14.194Z,15.53
2018-06-09T14:51:42.349Z,16.00
2018-06-09T14:54:10.498Z,16.65
2018-06-09T14:56:38.323Z,16.37
2018-06-09T14:59:06.354Z,16.62
2018-06-09T15:01:34.399Z,15.72
2018-06-09T15:04:02.423Z,15.85
2018-06-09T15:06:30.513Z,16.12
2018-06-09T15:08:58.651Z,15.53
2018-06-09T15:11:26.779Z,14.33
2018-06-09T15:13:54.765Z,13.25
2018-06-09T15:16:22.794Z,14.60
2018-06-09T15:18:50.614Z,14.28
2018-06-09T15:21:18.643Z,13.43
2018-06-09T15:23:46.657Z,17.30
2018-06-09T15:26:14.722Z,14.80
2018-06-09T15:28:42.774Z,13.80
2018-06-09T15:31:10.610Z,17.27
2018-06-09T15:33:38.663Z,21.70
2018-06-09T15:36:06.479Z,17.10
2018-06-09T15:38:34.527Z,13.50
2018-06-09T15:41:02.573Z,14.68
2018-06-09T15:43:30.608Z,14.33
2018-06-09T15:45:58.634Z,14.87
2018-06-09T15:48:26.658Z,13.45
2018-06-09T15:50:54.714Z,13.28
2018-06-09T15:53:22.751Z,13.68
2018-06-09T15:55:50.886Z,14.30
2018-06-09T15:58:18.959Z,14.78
2018-06-09T16:00:48.140Z,14.83
2018-06-09T16:03:16.263Z,15.10
2018-06-09T16:05:44.347Z,13.20
2018-06-09T16:10:39.736Z,14.10
2018-06-09T16:13:08.050Z,13.25
2018-06-09T16:15:36.154Z,14.55
2018-06-09T16:18:04.334Z,13.83
2018-06-09T16:20:32.391Z,15.28
2018-06-09T16:23:00.423Z,13.83
2018-06-09T16:25:28.567Z,14.55
2018-06-09T16:27:56.554Z,15.93
2018-06-09T16:30:24.583Z,15.98
2018-06-09T16:32:52.597Z,14.25
2018-06-09T16:35:21.040Z,16.65
2018-06-09T16:37:49.074Z,17.17
2018-06-09T16:40:17.223Z,14.38
2018-06-09T16:42:45.046Z,15.63
2018-06-09T16:45:13.077Z,15.13
2018-06-09T16:47:41.141Z,14.15
2018-06-09T16:50:09.163Z,13.62
2018-06-09T16:52:37.215Z,21.83
2018-06-09T16:55:05.263Z,14.85
2018-06-09T16:57:33.295Z,16.07
2018-06-09T17:00:01.119Z,14.20
2018-06-09T17:02:29.142Z,14.33
2018-06-09T17:04:57.174Z,15.30
2018-06-09T17:07:25.222Z,14.03
2018-06-09T17:09:53.250Z,14.55
2018-06-09T17:12:21.279Z,13.25
2018-06-09T17:14:49.328Z,13.62
2018-06-09T17:17:17.366Z,14.55
2018-06-09T17:19:45.391Z,13.53
2018-06-09T17:22:13.449Z,13.35
2018-06-09T17:24:41.272Z,13.75
2018-06-09T17:27:09.294Z,14.30
2018-06-09T17:32:04.730Z,14.30
2018-06-09T17:34:32.779Z,12.05
2018-06-09T17:37:00.798Z,10.55
2018-06-09T17:39:28.823Z,10.05
2018-06-09T17:41:56.630Z,8.90
2018-06-09T17:44:24.683Z,13.70
2018-06-09T17:46:52.811Z,10.07
2018-06-09T17:49:20.835Z,8.30
2018-06-09T17:56:43.407Z,8.33
2018-06-09T18:13:55.570Z,11.05
2018-06-09T18:18:50.981Z,10.90
2018-06-09T18:21:19.127Z,10.03
2018-06-09T18:23:47.158Z,9.53
2018-06-09T18:26:15.183Z,10.40
2018-06-09T18:28:43.274Z,9.20
2018-06-09T18:31:11.078Z,8.80
2018-06-09T18:33:39.284Z,9.03
2018-06-09T18:36:07.282Z,10.17
2018-06-09T18:38:35.323Z,11.13
2018-06-09T18:41:03.383Z,11.63
2018-06-09T18:43:31.415Z,9.77
2018-06-09T18:45:59.230Z,7.80
2018-06-09T18:48:27.250Z,7.30
2018-06-09T18:50:55.281Z,8.37
2018-06-09T18:53:23.154Z,9.27
2018-06-09T18:55:51.182Z,10.83
2018-06-09T18:58:19.223Z,11.43
2018-06-09T19:00:47.254Z,12.33
2018-06-09T19:03:15.282Z,12.33
2018-06-09T19:05:43.394Z,13.47
2018-06-09T19:08:11.295Z,14.43
2018-06-09T19:10:39.430Z,16.23
2018-06-09T19:15:34.707Z,14.20
2018-06-09T19:20:30.102Z,14.43
2018-06-09T19:22:58.157Z,15.30
2018-06-09T19:25:25.994Z,14.37
2018-06-09T19:27:54.054Z,13.57
2018-06-09T19:30:22.091Z,14.70
2018-06-09T19:32:50.130Z,13.10
2018-06-09T19:35:18.191Z,13.77
2018-06-09T19:37:46.226Z,13.70
2018-06-09T19:40:14.266Z,15.57
2018-06-09T19:42:42.311Z,15.50
2018-06-09T19:45:10.363Z,15.30
2018-06-09T19:47:38.186Z,16.70
2018-06-09T19:50:06.520Z,16.77
2018-06-09T19:52:34.644Z,19.27
2018-06-09T19:55:02.466Z,19.17
2018-06-09T19:57:30.736Z,20.10
2018-06-09T19:59:58.743Z,18.77
2018-06-09T20:02:26.806Z,18.33
2018-06-09T20:04:54.850Z,18.27
2018-06-09T20:07:22.878Z,17.77
2018-06-09T20:09:50.908Z,15.73
2018-06-09T20:12:18.737Z,15.53
2018-06-09T20:14:46.782Z,14.60
2018-06-09T20:17:14.812Z,15.90
2018-06-09T20:19:42.847Z,15.30
2018-06-09T20:22:10.717Z,15.60
2018-06-09T20:24:38.767Z,15.67
2018-06-09T20:27:06.814Z,16.37
2018-06-09T20:29:34.846Z,16.20
2018-06-09T20:32:02.655Z,17.23
2018-06-09T20:34:30.694Z,15.93
2018-06-09T20:36:58.754Z,15.07
2018-06-09T20:39:26.816Z,15.20
2018-06-09T20:41:54.966Z,14.70
2018-06-09T20:44:23.007Z,17.70
2018-06-09T20:46:51.046Z,18.97
2018-06-09T20:49:18.874Z,18.00
2018-06-09T20:51:46.944Z,20.20
2018-06-09T20:54:14.976Z,22.67
2018-06-09T20:56:43.008Z,20.63
2018-06-09T20:59:11.031Z,23.07
2018-06-09T21:01:39.071Z,22.13
2018-06-09T21:04:07.107Z,22.50
2018-06-09T21:06:35.182Z,22.30
2018-06-09T21:09:03.448Z,21.93
2018-06-09T21:11:31.265Z,22.20
2018-06-09T21:13:59.300Z,24.13
2018-06-09T21:16:27.347Z,24.07
2018-06-09T21:18:55.456Z,24.63
2018-06-09T21:21:23.468Z,23.97
2018-06-09T21:23:51.512Z,22.47
2018-06-09T21:26:19.538Z,24.87
2018-06-09T21:28:53.102Z,27.10
2018-06-09T21:31:26.547Z,28.37
2018-06-09T21:34:06.175Z,25.73
2018-06-09T21:36:39.498Z,25.60
2018-06-09T21:39:13.292Z,23.67
2018-06-09T21:42:48.118Z,24.60
2018-06-09T21:45:21.642Z,23.70
2018-06-09T21:47:49.674Z,25.23
2018-06-09T21:52:45.087Z,29.17
2018-06-09T21:55:13.126Z,29.97
2018-06-09T21:57:41.170Z,30.43
2018-06-09T22:00:09.215Z,30.47
2018-06-09T22:02:37.022Z,29.23
2018-06-09T22:05:05.096Z,32.93
2018-06-09T22:07:33.138Z,34.87
2018-06-09T22:10:01.191Z,31.73
2018-06-09T22:12:29.249Z,33.33
2018-06-09T22:14:57.254Z,33.83
2018-06-09T22:17:25.275Z,32.00
2018-06-09T22:19:53.303Z,32.43
2018-06-09T22:22:21.358Z,32.03
2018-06-09T22:24:49.406Z,33.43
2018-06-09T22:32:12.186Z,34.53
2018-06-09T22:34:40.286Z,34.83
2018-06-09T22:37:08.315Z,31.73
2018-06-09T22:39:36.349Z,30.63
2018-06-09T22:42:04.386Z,28.63
2018-06-09T22:44:32.406Z,28.57
2018-06-09T22:47:00.435Z,27.30
2018-06-09T22:49:28.716Z,28.53
2018-06-09T22:51:56.741Z,27.43
2018-06-09T22:54:24.787Z,25.93
2018-06-09T22:56:52.815Z,27.73
2018-06-09T22:59:20.850Z,27.40
2018-06-09T23:01:48.875Z,27.40
2018-06-09T23:04:16.910Z,25.57
2018-06-09T23:06:44.947Z,25.50
2018-06-09T23:09:12.975Z,25.07
2018-06-09T23:11:41.026Z,25.63
2018-06-09T23:14:09.044Z,23.53
2018-06-09T23:16:37.067Z,24.63
2018-06-09T23:19:05.315Z,22.93
2018-06-09T23:21:33.343Z,22.25
2018-06-09T23:24:01.363Z,24.97
2018-06-09T23:26:29.391Z,23.70
2018-06-09T23:36:19.510Z,22.87
2018-06-09T23:38:47.544Z,21.10
2018-06-09T23:41:15.575Z,21.30
2018-06-09T23:43:43.633Z,22.33
2018-06-09T23:46:11.654Z,21.70
2018-06-09T23:48:39.683Z,22.50
2018-06-09T23:51:07.694Z,22.10
2018-06-09T23:53:35.730Z,21.50
2018-06-09T23:56:03.803Z,23.43
2018-06-09T23:58:31.803Z,24.47
